Jasno s ojedinělými nízkými oblaky a řasovou slohou
Zataženo
Zataženo
Zataženo
Zataženo
Zataženo
Zataženo
(°C)
(°C)
-3°
-3°
-3°
-2°
-2°
-1°
ZSZ
ZSZ
ZSZ
ZSZ
ZSZ
ZSZ
ZSZ
(km/h)
10-29
10-29
10-30
9-29
9-29
9-29
9-27
(mm)
0
0
0
0
0
0
0
(%)
0
0
0
0
0
0
4

Sluneční výška

/ -35.7°
sun-icon
UV 2
06:59
17:55
Ubývající měsíc (201°)
19:59
07:53

METAR pro Innsbruck (LOWI)

Čas Podmínky Teplota/
Rosný bod
Vítr Viditelnost Počasí Oblaky Tlak Změna Nezpracované
VFR 1°C / -1°C 270º variable 250º to 320º 8kt 9700m - Clear 1002 - LOWI 260150Z AUTO 27008KT 250V320 9999 NSC 01/M01 Q1002
VFR 0°C / -1°C 280º 6kt 9700m - Clear 1002 - LOWI 260120Z AUTO 28006KT 9999 NSC 00/M01 Q1002
VFR 1°C / -1°C 260º variable 230º to 290º 6kt 9700m - Clear 1003 - LOWI 260050Z AUTO 26006KT 230V290 9999 NSC 01/M01 Q1003
VFR 1°C / -1°C 270º 10kt 9700m - Clear 1003 - LOWI 260020Z AUTO 27010KT 9999 NSC 01/M01 Q1003
VFR 1°C / -1°C 270º variable 170º to 310º 6kt 9700m - Clear 1003 - LOWI 252350Z AUTO 27006KT 170V310 9999 NSC 01/M01 Q1003
VFR 1°C / -1°C 250º 6kt 9700m - Few Clouds 10000ft
Scattered Clouds 12000ft
1003 - LOWI 252320Z AUTO 25006KT 9999 FEW100 SCT120 01/M01 Q1003
VFR 1°C / -1°C 270º 9kt 9700m - Clear 1003 - LOWI 252250Z AUTO 27009KT 9999 NSC 01/M01 Q1003
VFR 1°C / -1°C 270º variable 210º to 320º 7kt 9700m - Clear 1003 - LOWI 252220Z AUTO 27007KT 210V320 9999 NSC 01/M01 Q1003
VFR 1°C / 0°C 260º 8kt. Wind Shear present on Runway 08. 9700m - Few Clouds 6000ft 1003 No Significant change LOWI 252150Z 26008KT 9999 FEW060 01/M00 Q1003 WS R08 NOSIG
VFR 1°C / 0°C 260º variable 210º to 270º 9kt. Wind Shear present on Runway 08. 9700m - Few Clouds 6000ft 1004 No Significant change LOWI 252120Z 26009KT 210V270 9999 FEW060 01/M00 Q1004 WS R08 NOSIG
VFR 1°C / -1°C 260º variable 220º to 280º 6kt. Wind Shear present on Runway 08. 9700m - Few Clouds 6000ft 1003 No Significant change LOWI 252050Z 26006KT 220V280 9999 FEW060 01/M01 Q1003 WS R08 NOSIG
VFR 2°C / -1°C 270º variable 200º to 310º 4kt. Wind Shear present on Runway 08. 9700m - Few Clouds 6000ft 1004 No Significant change LOWI 252020Z 27004KT 200V310 9999 FEW060 02/M01 Q1004 WS R08 NOSIG
VFR 2°C / 0°C 210º variable 140º to 280º 4kt. Wind Shear present on Runway 08. 9700m - Few Clouds 6000ft 1004 No Significant change LOWI 251950Z 21004KT 140V280 9999 FEW060 02/M00 Q1004 WS R08 NOSIG
VFR 3°C / 0°C 250º variable 130º to 290º 4kt. Wind Shear present on Runway 08. 9700m - Few Clouds 6000ft 1004 No Significant change LOWI 251920Z 25004KT 130V290 9999 FEW060 03/M00 Q1004 WS R08 NOSIG
VFR 3°C / -1°C 280º variable 230º to 340º 4kt 9700m - Few Clouds 6000ft 1004 No Significant change LOWI 251850Z 28004KT 230V340 9999 FEW060 03/M01 Q1004 NOSIG
VFR 5°C / -1°C 100º variable 030º to 200º 5kt. Wind Shear present on All Runways. 9700m - Few Clouds 6000ft 1004 No Significant change LOWI 251820Z 10005KT 030V200 9999 FEW060 05/M01 Q1004 WS ALL RWY NOSIG
VFR 6°C / -1°C 140º variable 080º to 220º 7kt. Wind Shear present on All Runways. 9700m - Few Clouds 6000ft 1004 No Significant change LOWI 251750Z 14007KT 080V220 9999 FEW060 06/M01 Q1004 WS ALL RWY NOSIG
VFR 7°C / -2°C 120º variable 060º to 190º 9kt 9700m - Few Clouds 6000ft 1004 No Significant change LOWI 251720Z 12009KT 060V190 9999 FEW060 07/M02 Q1004 NOSIG
VFR 8°C / -3°C 140º variable 030º to 190º 9kt Gust 19kt 9700m - Few Clouds 6000ft 1004 No Significant change LOWI 251650Z 14009G19KT 030V190 9999 FEW060 08/M03 Q1004 NOSIG
VFR 8°C / -3°C 120º variable 070º to 170º 11kt. Wind Shear present on All Runways. 9700m - Few Clouds 6000ft 1004 No Significant change LOWI 251620Z 12011KT 070V170 9999 FEW060 08/M03 Q1004 WS ALL RWY NOSIG
VFR 9°C / -2°C 140º variable 100º to 190º 12kt. Wind Shear present on All Runways. 9700m - Few Clouds 6000ft 1004 No Significant change LOWI 251550Z 14012KT 100V190 9999 FEW060 09/M02 Q1004 WS ALL RWY NOSIG
VFR 9°C / -3°C 130º variable 090º to 180º 7kt. Wind Shear present on All Runways. 9700m - Few Clouds 6000ft 1004 No Significant change LOWI 251520Z 13007KT 090V180 9999 FEW060 09/M03 Q1004 WS ALL RWY NOSIG
VFR 10°C / -3°C 5kt. Wind Shear present on All Runways. 9700m - Few Clouds 6000ft 1004 Temporary: Wind 120º 15kt. Gust 25KT. LOWI 251450Z VRB05KT 9999 FEW060 10/M03 Q1004 WS ALL RWY TEMPO 12015G25KT
VFR 11°C / -1°C 4kt. Wind Shear present on All Runways. 9700m - Few Clouds 6000ft 1004 Temporary: Wind 120º 15kt. Gust 25KT. LOWI 251420Z VRB04KT 9999 FEW060 11/M01 Q1004 WS ALL RWY TEMPO 12015G25KT

VFR

1°C / -1°C

[Víc]
Vítr 270º variable 250º to 320º 8kt
Viditelnost 9700m
Počasí -
Oblaky Clear
Tlak 1002
Změna -
Nezpracované LOWI 260150Z AUTO 27008KT 250V320 9999 NSC 01/M01 Q1002

VFR

0°C / -1°C

[Víc]
Vítr 280º 6kt
Viditelnost 9700m
Počasí -
Oblaky Clear
Tlak 1002
Změna -
Nezpracované LOWI 260120Z AUTO 28006KT 9999 NSC 00/M01 Q1002

VFR

1°C / -1°C

[Víc]
Vítr 260º variable 230º to 290º 6kt
Viditelnost 9700m
Počasí -
Oblaky Clear
Tlak 1003
Změna -
Nezpracované LOWI 260050Z AUTO 26006KT 230V290 9999 NSC 01/M01 Q1003

VFR

1°C / -1°C

[Víc]
Vítr 270º 10kt
Viditelnost 9700m
Počasí -
Oblaky Clear
Tlak 1003
Změna -
Nezpracované LOWI 260020Z AUTO 27010KT 9999 NSC 01/M01 Q1003

VFR

1°C / -1°C

[Víc]
Vítr 270º variable 170º to 310º 6kt
Viditelnost 9700m
Počasí -
Oblaky Clear
Tlak 1003
Změna -
Nezpracované LOWI 252350Z AUTO 27006KT 170V310 9999 NSC 01/M01 Q1003

VFR

1°C / -1°C

[Víc]
Vítr 250º 6kt
Viditelnost 9700m
Počasí -
Oblaky Few Clouds 10000ft
Scattered Clouds 12000ft
Tlak 1003
Změna -
Nezpracované LOWI 252320Z AUTO 25006KT 9999 FEW100 SCT120 01/M01 Q1003

VFR

1°C / -1°C

[Víc]
Vítr 270º 9kt
Viditelnost 9700m
Počasí -
Oblaky Clear
Tlak 1003
Změna -
Nezpracované LOWI 252250Z AUTO 27009KT 9999 NSC 01/M01 Q1003

VFR

1°C / -1°C

[Víc]
Vítr 270º variable 210º to 320º 7kt
Viditelnost 9700m
Počasí -
Oblaky Clear
Tlak 1003
Změna -
Nezpracované LOWI 252220Z AUTO 27007KT 210V320 9999 NSC 01/M01 Q1003

VFR

1°C / 0°C

[Víc]
Vítr 260º 8kt. Wind Shear present on Runway 08.
Viditelnost 9700m
Počasí -
Oblaky Few Clouds 6000ft
Tlak 1003
Změna No Significant change
Nezpracované LOWI 252150Z 26008KT 9999 FEW060 01/M00 Q1003 WS R08 NOSIG

VFR

1°C / 0°C

[Víc]
Vítr 260º variable 210º to 270º 9kt. Wind Shear present on Runway 08.
Viditelnost 9700m
Počasí -
Oblaky Few Clouds 6000ft
Tlak 1004
Změna No Significant change
Nezpracované LOWI 252120Z 26009KT 210V270 9999 FEW060 01/M00 Q1004 WS R08 NOSIG

VFR

1°C / -1°C

[Víc]
Vítr 260º variable 220º to 280º 6kt. Wind Shear present on Runway 08.
Viditelnost 9700m
Počasí -
Oblaky Few Clouds 6000ft
Tlak 1003
Změna No Significant change
Nezpracované LOWI 252050Z 26006KT 220V280 9999 FEW060 01/M01 Q1003 WS R08 NOSIG

VFR

2°C / -1°C

[Víc]
Vítr 270º variable 200º to 310º 4kt. Wind Shear present on Runway 08.
Viditelnost 9700m
Počasí -
Oblaky Few Clouds 6000ft
Tlak 1004
Změna No Significant change
Nezpracované LOWI 252020Z 27004KT 200V310 9999 FEW060 02/M01 Q1004 WS R08 NOSIG

VFR

2°C / 0°C

[Víc]
Vítr 210º variable 140º to 280º 4kt. Wind Shear present on Runway 08.
Viditelnost 9700m
Počasí -
Oblaky Few Clouds 6000ft
Tlak 1004
Změna No Significant change
Nezpracované LOWI 251950Z 21004KT 140V280 9999 FEW060 02/M00 Q1004 WS R08 NOSIG

VFR

3°C / 0°C

[Víc]
Vítr 250º variable 130º to 290º 4kt. Wind Shear present on Runway 08.
Viditelnost 9700m
Počasí -
Oblaky Few Clouds 6000ft
Tlak 1004
Změna No Significant change
Nezpracované LOWI 251920Z 25004KT 130V290 9999 FEW060 03/M00 Q1004 WS R08 NOSIG

VFR

3°C / -1°C

[Víc]
Vítr 280º variable 230º to 340º 4kt
Viditelnost 9700m
Počasí -
Oblaky Few Clouds 6000ft
Tlak 1004
Změna No Significant change
Nezpracované LOWI 251850Z 28004KT 230V340 9999 FEW060 03/M01 Q1004 NOSIG

VFR

5°C / -1°C

[Víc]
Vítr 100º variable 030º to 200º 5kt. Wind Shear present on All Runways.
Viditelnost 9700m
Počasí -
Oblaky Few Clouds 6000ft
Tlak 1004
Změna No Significant change
Nezpracované LOWI 251820Z 10005KT 030V200 9999 FEW060 05/M01 Q1004 WS ALL RWY NOSIG

VFR

6°C / -1°C

[Víc]
Vítr 140º variable 080º to 220º 7kt. Wind Shear present on All Runways.
Viditelnost 9700m
Počasí -
Oblaky Few Clouds 6000ft
Tlak 1004
Změna No Significant change
Nezpracované LOWI 251750Z 14007KT 080V220 9999 FEW060 06/M01 Q1004 WS ALL RWY NOSIG

VFR

7°C / -2°C

[Víc]
Vítr 120º variable 060º to 190º 9kt
Viditelnost 9700m
Počasí -
Oblaky Few Clouds 6000ft
Tlak 1004
Změna No Significant change
Nezpracované LOWI 251720Z 12009KT 060V190 9999 FEW060 07/M02 Q1004 NOSIG

VFR

8°C / -3°C

[Víc]
Vítr 140º variable 030º to 190º 9kt Gust 19kt
Viditelnost 9700m
Počasí -
Oblaky Few Clouds 6000ft
Tlak 1004
Změna No Significant change
Nezpracované LOWI 251650Z 14009G19KT 030V190 9999 FEW060 08/M03 Q1004 NOSIG

VFR

8°C / -3°C

[Víc]
Vítr 120º variable 070º to 170º 11kt. Wind Shear present on All Runways.
Viditelnost 9700m
Počasí -
Oblaky Few Clouds 6000ft
Tlak 1004
Změna No Significant change
Nezpracované LOWI 251620Z 12011KT 070V170 9999 FEW060 08/M03 Q1004 WS ALL RWY NOSIG

VFR

9°C / -2°C

[Víc]
Vítr 140º variable 100º to 190º 12kt. Wind Shear present on All Runways.
Viditelnost 9700m
Počasí -
Oblaky Few Clouds 6000ft
Tlak 1004
Změna No Significant change
Nezpracované LOWI 251550Z 14012KT 100V190 9999 FEW060 09/M02 Q1004 WS ALL RWY NOSIG

VFR

9°C / -3°C

[Víc]
Vítr 130º variable 090º to 180º 7kt. Wind Shear present on All Runways.
Viditelnost 9700m
Počasí -
Oblaky Few Clouds 6000ft
Tlak 1004
Změna No Significant change
Nezpracované LOWI 251520Z 13007KT 090V180 9999 FEW060 09/M03 Q1004 WS ALL RWY NOSIG

VFR

10°C / -3°C

[Víc]
Vítr 5kt. Wind Shear present on All Runways.
Viditelnost 9700m
Počasí -
Oblaky Few Clouds 6000ft
Tlak 1004
Změna Temporary: Wind 120º 15kt. Gust 25KT.
Nezpracované LOWI 251450Z VRB05KT 9999 FEW060 10/M03 Q1004 WS ALL RWY TEMPO 12015G25KT

VFR

11°C / -1°C

[Víc]
Vítr 4kt. Wind Shear present on All Runways.
Viditelnost 9700m
Počasí -
Oblaky Few Clouds 6000ft
Tlak 1004
Změna Temporary: Wind 120º 15kt. Gust 25KT.
Nezpracované LOWI 251420Z VRB04KT 9999 FEW060 11/M01 Q1004 WS ALL RWY TEMPO 12015G25KT

TAF pro Innsbruck (LOWI)

From till


Maximum Temperature 12ºC on . Minimum Temperature 2ºC on .
From till Wind 270º 7kt. Visibility 9700m. Few Clouds 6000ft.
Becoming from till
Temporarly from till Wind 140º 15kt. Gust 30kt.
Becoming from till

Nezpracované: TAF LOWI 252315Z 2600/2624 27007KT 9999 FEW060 TX12/2615Z TN02/2606Z BECMG 2610/2612 12012G25KT TEMPO 2613/2617 14015G30KT BECMG 2619/2621 27005KT

Radar a krátkodobá předpověď srážek pro Innsbruck

Mrholení
Slabé
Střední
Silné
Velmi silné
Kroupy

Značka lokality je umístněna na Innsbruck. Tato animace zobrazuje srážkový radar pro vybraný časový rozsah a také 2h předpověď. Oranžové křížky označují blesky. Údaje poskytl nowcast.de (k dispozici v USA, Evropě a Austrálii). Mrholení nebo slabé sněžení může být pro radar neviditelné. Intenzita srážek je barevně označena od tyrkysové po červenou.

Aktuální snímky ze satelitu a srážky pro Innsbruck, Rakousko

Značka polohy je umístěna na Innsbruck. [Víc]

Satelitní snímek v reálném čase kombinuje viditelné světlo během dne s infračerveným zářením během noci. V noci není obraz tmavý, protože infračervené záření dokáže detekovat teplotní rozdíly. Nízká oblačnost a mlha se bohužel těžko odlišují od pozemních teplot, a proto mohou být během noci téměř neviditelné. Satelitní snímky z Meteosatu pro Evropu jsou aktualizovány v reálném čase každých 5 minut. Snímky z GOES-16/GOES-17 (Severní a Jižní Amerika) a Himawari (Asie) jsou aktualizovány) každých 10 minut.

Srážky se odhadují z radarů a družic. Odhady srážek ze satelitů jsou v noci méně přesné než ve dne.

© 2024 meteoblue, NOAA Satellites GOES-16 and EUMETSAT. Údaje o blescích poskytuje nowcast.

Zpět nahoru
×
Dobrý den,
zdá se, že používáte blokovač reklam.

Reklama je nezbytná pro udržování našich bezplatných webových stránek s jedinečnými detaily a přesností.

Prosím, zapište www.meteoblue.com do svého blokovače reklam nebo zvažte nákup některého z našich produktů:

Máte již předplatné?
Pak se prosím přihlaste.